Create Tblcommutelog Verified Points Advance Search
| # | Trip ID | Id Commuter | Trip Date | Trip Num | Current Lat | Current Lng | Delta Distance | Current Time | Activity | Activity Confidence | Current Speed | |
|---|---|---|---|---|---|---|---|---|---|---|---|---|
| 72301 | 250724_784027_16651866_1726 | 784027 | (not set) | (not set) | 38.891785166707 | -77.068316213344 | 0.1158 | 2025-07-24 17:51:07 | in_vehicle | 100 | -0.44703925898772 | |
| 72302 | 250724_786124_6441454_1636 | 786124 | (not set) | (not set) | 39.443216009174 | -77.456486626191 | 37.3309 | 2025-07-24 17:51:19 | in_vehicle | 100 | 6.5312435738107 | |
| 72303 | 250724_779784_16647476_1717 | 779784 | (not set) | (not set) | 39.190175237134 | -77.2588312046 | 22.4471 | 2025-07-24 17:51:30 | in_vehicle | 100 | 13.294947562295 | |
| 72304 | 250724_784650_16652626_1738 | 784650 | (not set) | (not set) | 38.886213210924 | -77.02154434009 | 0.195 | 2025-07-24 17:51:42 | on_bicycle | 100 | -0.44703925898772 | |
| 72305 | 250724_784650_16652626_1738 | 784650 | (not set) | (not set) | 38.886213210924 | -77.02154434009 | 0.195 | 2025-07-24 17:51:42 | on_bicycle | 100 | -0.44703925898772 | |
| 72306 | 250724_784815_16652847_1652 | 784815 | (not set) | (not set) | 39.192381365833 | -76.695422384139 | 30.5242 | 2025-07-24 17:51:21 | still | 33 | 0 | |
| 72307 | 250724_786124_6441454_1636 | 786124 | (not set) | (not set) | 39.442161661775 | -77.460052752156 | 37.5596 | 2025-07-24 17:52:02 | in_vehicle | 100 | 4.7654385008091 | |
| 72308 | 250724_780789_16648466_1716 | 780789 | (not set) | (not set) | 38.801150002954 | -77.52494956775 | 21.4216 | 2025-07-24 17:52:15 | unknown | 100 | 13.563171117688 | |
| 72309 | 250724_781052_16648727_1628 | 781052 | (not set) | (not set) | 38.976661348414 | -77.018390938067 | 8.0267 | 2025-07-24 17:52:27 | in_vehicle | 100 | 9.0436042093217 | |
| 72310 | 250724_781283_16648959_1750 | 781283 | (not set) | (not set) | 38.886732 | -77.0258516 | 0.1223 | 2025-07-24 17:52:39 | still | 100 | 1.9759135247257 | |
| 72311 | 250724_780745_16648422_1632 | 780745 | (not set) | (not set) | 39.085140410729 | -77.557348148688 | 40.4343 | 2025-07-24 17:52:48 | in_vehicle | 100 | 6.3479574776257 | |
| 72312 | 250724_785175_16653273_1734 | 785175 | (not set) | (not set) | 38.927891266254 | -77.032673261418 | 7.2599 | 2025-07-24 17:53:03 | on_foot | 100 | 0.67055888848159 | |
| 72313 | 250724_763853_16630707_1701 | 763853 | (not set) | (not set) | 38.84448946868 | -77.439458061089 | 20.9657 | 2025-07-24 17:53:14 | in_vehicle | 100 | 1.564637406457 | |
| 72314 | 250724_779784_16647476_1717 | 779784 | (not set) | (not set) | 39.21670707301 | -77.277725162499 | 24.5793 | 2025-07-24 17:53:26 | in_vehicle | 100 | 13.911861739698 | |
| 72315 | 250724_763853_16630707_1701 | 763853 | (not set) | (not set) | 38.842957275571 | -77.441833243145 | 21.132 | 2025-07-24 17:53:41 | in_vehicle | 100 | 5.3331783597236 | |
| 72316 | 250724_787617_0_1716 | 787617 | (not set) | (not set) | 38.884679969377 | -76.996495622066 | 3.3775 | 2025-07-24 17:53:53 | in_vehicle | 100 | 5.1990665820272 | |
| 72317 | 250724_763853_16630707_1701 | 763853 | (not set) | (not set) | 38.8403601658 | -77.444579878928 | 21.3648 | 2025-07-24 17:54:05 | in_vehicle | 100 | 7.7069568249484 | |
| 72318 | 250724_770164_16637262_1736 | 770164 | (not set) | (not set) | 38.890879969146 | -77.219341491627 | 0.9477 | 2025-07-24 17:54:18 | on_bicycle | 100 | 3.3215016942788 | |
| 72319 | 250724_776960_16644495_1706 | 776960 | (not set) | (not set) | 39.281969072243 | -76.671132094271 | 36.7707 | 2025-07-24 17:54:31 | in_vehicle | 100 | 7.6756640768192 | |
| 72320 | 250724_786248_16654545_1744 | 786248 | (not set) | (not set) | 39.152438433333 | -76.645138066667 | 4.1939 | 2025-07-24 17:54:49 | in_vehicle | 100 | 0 |